DAL994 EGHQ-KBOS
Flight info
| Callsign | DAL994 |
|---|---|
| Flight time | N/A |
| Altitude | 34000 |
| Route | GITUS DCT MAPAG DCT AMDEP DCT XETBO DCT LIMRI/M079F360 NATD IBERG/N0448F380 N364A TUSKY DCT EURRO OOSHN5 |
| Aircraft | B764/H-SDE3FGHIM3RWXY/LB1 |
Departure
| Time | 2026-05-06 14:04 |
|---|---|
| Airport | Cornwall Airport Newquay (EGHQ) |
Arrival
| Time | N/A |
|---|---|
| Airport | Boston Logan International Airport (KBOS) |
| Time | Latitude | Longitude | Altitude | Speed | Heading |
|---|---|---|---|---|---|
| 2026-05-06 13:27 | 50.43720 | -4.99566 | 401 ft | 0 kts | 247° |
| 2026-05-06 13:48 | 50.43722 | -4.99558 | 401 ft | 2 kts | 247° |
| 2026-05-06 13:49 | 50.43727 | -4.99536 | 401 ft | 2 kts | 247° |
| 2026-05-06 13:49 | 50.43733 | -4.99514 | 401 ft | 2 kts | 258° |
| 2026-05-06 13:49 | 50.43734 | -4.99492 | 401 ft | 2 kts | 276° |
| 2026-05-06 13:49 | 50.43731 | -4.99469 | 401 ft | 2 kts | 291° |
| 2026-05-06 13:50 | 50.43724 | -4.99449 | 401 ft | 2 kts | 306° |
| 2026-05-06 13:50 | 50.43714 | -4.99432 | 401 ft | 1 kts | 322° |
| 2026-05-06 13:50 | 50.43716 | -4.99434 | 401 ft | 3 kts | 323° |
| 2026-05-06 13:50 | 50.43737 | -4.99458 | 401 ft | 3 kts | 325° |
| 2026-05-06 13:51 | 50.43760 | -4.99483 | 401 ft | 3 kts | 324° |
| 2026-05-06 13:51 | 50.43782 | -4.99505 | 401 ft | 3 kts | 334° |
| 2026-05-06 13:51 | 50.43807 | -4.99517 | 401 ft | 3 kts | 349° |
| 2026-05-06 13:51 | 50.43832 | -4.99518 | 401 ft | 3 kts | 4° |
| 2026-05-06 13:52 | 50.43859 | -4.99515 | 401 ft | 3 kts | 4° |
| 2026-05-06 13:52 | 50.43886 | -4.99512 | 401 ft | 3 kts | 3° |
| 2026-05-06 13:52 | 50.43913 | -4.99510 | 401 ft | 3 kts | 4° |
| 2026-05-06 13:52 | 50.43924 | -4.99509 | 401 ft | 1 kts | 3° |
| 2026-05-06 13:53 | 50.43926 | -4.99509 | 401 ft | 0 kts | 3° |
| 2026-05-06 13:55 | 50.43940 | -4.99508 | 401 ft | 6 kts | 3° |
| 2026-05-06 13:55 | 50.44009 | -4.99502 | 401 ft | 13 kts | 2° |
| 2026-05-06 13:55 | 50.44120 | -4.99495 | 401 ft | 18 kts | 2° |
| 2026-05-06 13:56 | 50.44197 | -4.99492 | 401 ft | 4 kts | 1° |
| 2026-05-06 13:56 | 50.44204 | -4.99492 | 401 ft | 3 kts | 1° |
| 2026-05-06 13:57 | 50.44240 | -4.99478 | 401 ft | 3 kts | 44° |
| 2026-05-06 13:57 | 50.44247 | -4.99457 | 401 ft | 0 kts | 80° |
| 2026-05-06 13:57 | 50.44241 | -4.99430 | 401 ft | 6 kts | 118° |
| 2026-05-06 13:58 | 50.44204 | -4.99328 | 401 ft | 12 kts | 121° |
| 2026-05-06 13:58 | 50.44161 | -4.99215 | 401 ft | 11 kts | 121° |
| 2026-05-06 13:58 | 50.44123 | -4.99115 | 401 ft | 10 kts | 121° |
| 2026-05-06 13:58 | 50.44089 | -4.99027 | 401 ft | 8 kts | 121° |
| 2026-05-06 13:59 | 50.44060 | -4.98949 | 401 ft | 8 kts | 121° |
| 2026-05-06 13:59 | 50.44029 | -4.98866 | 401 ft | 10 kts | 121° |
| 2026-05-06 13:59 | 50.43988 | -4.98760 | 401 ft | 12 kts | 121° |
| 2026-05-06 13:59 | 50.43940 | -4.98634 | 401 ft | 14 kts | 121° |
| 2026-05-06 14:00 | 50.43884 | -4.98487 | 401 ft | 16 kts | 121° |
| 2026-05-06 14:00 | 50.43823 | -4.98326 | 401 ft | 17 kts | 121° |
| 2026-05-06 14:00 | 50.43765 | -4.98171 | 401 ft | 15 kts | 121° |
| 2026-05-06 14:00 | 50.43712 | -4.98033 | 401 ft | 14 kts | 121° |
| 2026-05-06 14:01 | 50.43656 | -4.97917 | 401 ft | 12 kts | 139° |
| 2026-05-06 14:01 | 50.43584 | -4.97861 | 401 ft | 10 kts | 165° |
| 2026-05-06 14:01 | 50.43516 | -4.97858 | 401 ft | 9 kts | 191° |
| 2026-05-06 14:01 | 50.43474 | -4.97898 | 401 ft | 4 kts | 249° |
| 2026-05-06 14:02 | 50.43477 | -4.97941 | 401 ft | 4 kts | 292° |
| 2026-05-06 14:02 | 50.43487 | -4.97968 | 401 ft | 0 kts | 301° |
| 2026-05-06 14:02 | 50.43494 | -4.97987 | 401 ft | 8 kts | 301° |
| 2026-05-06 14:02 | 50.43605 | -4.98273 | 401 ft | 54 kts | 301° |
| 2026-05-06 14:03 | 50.43877 | -4.98995 | 401 ft | 100 kts | 300° |
| 2026-05-06 14:03 | 50.44304 | -5.00139 | 402 ft | 141 kts | 300° |
| 2026-05-06 14:03 | 50.44843 | -5.01631 | 474 ft | 170 kts | 298° |
| 2026-05-06 14:03 | 50.45457 | -5.03266 | 808 ft | 181 kts | 300° |
| 2026-05-06 14:04 | 50.46095 | -5.04936 | 1415 ft | 180 kts | 301° |
| 2026-05-06 14:04 | 50.46744 | -5.06619 | 1920 ft | 182 kts | 302° |
| 2026-05-06 14:04 | 50.47396 | -5.08350 | 2261 ft | 191 kts | 302° |
| 2026-05-06 14:04 | 50.48064 | -5.10143 | 2771 ft | 189 kts | 301° |
| 2026-05-06 14:05 | 50.48714 | -5.11926 | 3245 ft | 189 kts | 301° |
| 2026-05-06 14:05 | 50.49372 | -5.13720 | 3636 ft | 193 kts | 301° |
| 2026-05-06 14:05 | 50.50057 | -5.15602 | 3908 ft | 206 kts | 300° |
| 2026-05-06 14:05 | 50.50793 | -5.17690 | 3998 ft | 232 kts | 300° |
| 2026-05-06 14:06 | 50.51571 | -5.19944 | 4499 ft | 239 kts | 299° |
| 2026-05-06 14:06 | 50.52348 | -5.22276 | 4976 ft | 248 kts | 298° |
| 2026-05-06 14:06 | 50.53113 | -5.24690 | 5568 ft | 252 kts | 297° |
| 2026-05-06 14:06 | 50.53888 | -5.27222 | 6029 ft | 264 kts | 295° |
| 2026-05-06 14:07 | 50.54524 | -5.30015 | 6471 ft | 277 kts | 283° |
| 2026-05-06 14:07 | 50.54837 | -5.32993 | 7184 ft | 280 kts | 277° |
| 2026-05-06 14:07 | 50.55069 | -5.36023 | 7936 ft | 281 kts | 280° |
| 2026-05-06 14:07 | 50.55539 | -5.38974 | 8604 ft | 285 kts | 287° |
| 2026-05-06 14:08 | 50.56067 | -5.41962 | 9356 ft | 286 kts | 285° |
| 2026-05-06 14:08 | 50.56569 | -5.44997 | 10048 ft | 289 kts | 285° |
| 2026-05-06 14:08 | 50.57068 | -5.48083 | 10462 ft | 304 kts | 285° |
| 2026-05-06 14:08 | 50.57610 | -5.51490 | 10544 ft | 332 kts | 285° |
| 2026-05-06 14:09 | 50.58247 | -5.54975 | 11303 ft | 337 kts | 289° |
| 2026-05-06 14:09 | 50.58965 | -5.58496 | 12120 ft | 341 kts | 288° |
| 2026-05-06 14:09 | 50.59667 | -5.62029 | 12930 ft | 344 kts | 288° |
| 2026-05-06 14:09 | 50.60372 | -5.65620 | 13733 ft | 348 kts | 287° |
| 2026-05-06 14:10 | 50.61084 | -5.69256 | 14519 ft | 351 kts | 287° |
| 2026-05-06 14:10 | 50.61797 | -5.72921 | 15311 ft | 354 kts | 287° |
| 2026-05-06 14:10 | 50.62511 | -5.76598 | 16088 ft | 357 kts | 287° |
| 2026-05-06 14:10 | 50.63243 | -5.80375 | 16862 ft | 361 kts | 287° |
| 2026-05-06 14:11 | 50.63972 | -5.84153 | 17620 ft | 364 kts | 287° |
| 2026-05-06 14:11 | 50.64701 | -5.87930 | 18386 ft | 367 kts | 287° |
| 2026-05-06 14:11 | 50.65440 | -5.91772 | 19129 ft | 371 kts | 287° |
| 2026-05-06 14:11 | 50.66190 | -5.95680 | 19875 ft | 374 kts | 287° |
| 2026-05-06 14:12 | 50.66942 | -5.99608 | 20625 ft | 378 kts | 287° |
| 2026-05-06 14:12 | 50.67694 | -6.03538 | 21344 ft | 381 kts | 287° |
| 2026-05-06 14:12 | 50.68455 | -6.07529 | 22024 ft | 384 kts | 287° |
| 2026-05-06 14:12 | 50.69224 | -6.11570 | 22710 ft | 387 kts | 287° |
| 2026-05-06 14:13 | 50.69991 | -6.15610 | 23335 ft | 390 kts | 287° |
| 2026-05-06 14:13 | 50.70768 | -6.19706 | 23947 ft | 393 kts | 287° |
| 2026-05-06 14:13 | 50.71542 | -6.23799 | 24556 ft | 396 kts | 287° |
| 2026-05-06 14:13 | 50.72329 | -6.27970 | 25115 ft | 399 kts | 287° |
| 2026-05-06 14:14 | 50.72904 | -6.31023 | 25507 ft | 402 kts | 287° |
| 2026-05-06 14:14 | 50.73690 | -6.35203 | 26040 ft | 404 kts | 287° |
| 2026-05-06 14:14 | 50.74488 | -6.39462 | 26586 ft | 406 kts | 287° |
| 2026-05-06 14:14 | 50.75285 | -6.43717 | 27033 ft | 410 kts | 287° |
| 2026-05-06 14:15 | 50.76090 | -6.48029 | 27539 ft | 412 kts | 287° |
| 2026-05-06 14:15 | 50.76905 | -6.52406 | 27992 ft | 415 kts | 287° |
| 2026-05-06 14:15 | 50.77715 | -6.56765 | 28427 ft | 418 kts | 287° |
| 2026-05-06 14:15 | 50.78528 | -6.61151 | 28863 ft | 420 kts | 287° |
| 2026-05-06 14:16 | 50.79343 | -6.65559 | 29265 ft | 422 kts | 286° |
| 2026-05-06 14:16 | 50.80167 | -6.70024 | 29637 ft | 425 kts | 286° |
| 2026-05-06 14:16 | 50.80983 | -6.74458 | 30061 ft | 426 kts | 286° |
| 2026-05-06 14:16 | 50.81815 | -6.78986 | 30389 ft | 430 kts | 286° |
| 2026-05-06 14:17 | 50.82645 | -6.83522 | 30736 ft | 432 kts | 286° |
| 2026-05-06 14:17 | 50.83469 | -6.88034 | 31140 ft | 432 kts | 286° |
| 2026-05-06 14:17 | 50.84296 | -6.92572 | 31569 ft | 431 kts | 286° |
| 2026-05-06 14:17 | 50.85128 | -6.97145 | 31991 ft | 430 kts | 286° |
| 2026-05-06 14:18 | 50.85941 | -7.01630 | 32367 ft | 429 kts | 286° |
| 2026-05-06 14:18 | 50.86762 | -7.06168 | 32738 ft | 428 kts | 286° |
| 2026-05-06 14:18 | 50.87569 | -7.10642 | 33082 ft | 428 kts | 286° |
| 2026-05-06 14:18 | 50.88383 | -7.15168 | 33439 ft | 427 kts | 286° |
| 2026-05-06 14:19 | 50.89184 | -7.19628 | 33774 ft | 426 kts | 286° |
| 2026-05-06 14:19 | 50.89987 | -7.24110 | 34017 ft | 427 kts | 286° |
| 2026-05-06 14:19 | 50.91609 | -7.33202 | 34013 ft | 426 kts | 286° |
| 2026-05-06 14:20 | 50.93187 | -7.42087 | 34020 ft | 421 kts | 286° |
| 2026-05-06 14:20 | 50.94767 | -7.51030 | 34013 ft | 424 kts | 286° |
| 2026-05-06 14:21 | 50.96351 | -7.60043 | 34008 ft | 425 kts | 286° |
| 2026-05-06 14:21 | 50.97917 | -7.69000 | 34016 ft | 424 kts | 285° |
| 2026-05-06 14:22 | 50.99490 | -7.78037 | 34016 ft | 425 kts | 285° |
| 2026-05-06 14:22 | 51.01041 | -7.86998 | 34014 ft | 425 kts | 285° |
| 2026-05-06 14:23 | 51.02600 | -7.96052 | 34013 ft | 426 kts | 285° |
| 2026-05-06 14:23 | 51.04149 | -8.05088 | 34012 ft | 426 kts | 285° |
| 2026-05-06 14:24 | 51.05692 | -8.14146 | 34012 ft | 426 kts | 285° |
| 2026-05-06 14:24 | 51.07223 | -8.23174 | 34013 ft | 426 kts | 285° |
| 2026-05-06 14:25 | 51.08749 | -8.32216 | 34012 ft | 427 kts | 285° |
| 2026-05-06 14:25 | 51.10273 | -8.41297 | 34012 ft | 426 kts | 285° |
| 2026-05-06 14:26 | 51.11789 | -8.50387 | 34015 ft | 426 kts | 286° |
| 2026-05-06 14:26 | 51.13301 | -8.59487 | 34013 ft | 427 kts | 286° |
| 2026-05-06 14:27 | 51.14805 | -8.68595 | 34015 ft | 427 kts | 285° |
| 2026-05-06 14:27 | 51.16303 | -8.77715 | 34019 ft | 427 kts | 285° |
| 2026-05-06 14:28 | 51.17792 | -8.86829 | 34013 ft | 427 kts | 285° |
| 2026-05-06 14:28 | 51.19270 | -8.95923 | 34008 ft | 427 kts | 285° |
| 2026-05-06 14:29 | 51.20754 | -9.05102 | 34016 ft | 428 kts | 285° |
| 2026-05-06 14:29 | 51.22219 | -9.14225 | 34013 ft | 428 kts | 285° |
| 2026-05-06 14:30 | 51.23682 | -9.23377 | 34011 ft | 428 kts | 285° |
| 2026-05-06 14:30 | 51.25143 | -9.32564 | 34012 ft | 428 kts | 285° |
| 2026-05-06 14:31 | 51.26593 | -9.41734 | 34018 ft | 429 kts | 285° |
| 2026-05-06 14:31 | 51.28039 | -9.50938 | 34017 ft | 429 kts | 285° |
| 2026-05-06 14:32 | 51.29481 | -9.60161 | 34014 ft | 430 kts | 286° |
| 2026-05-06 14:32 | 51.30916 | -9.69394 | 34010 ft | 430 kts | 285° |
| 2026-05-06 14:33 | 51.32350 | -9.78676 | 34013 ft | 431 kts | 285° |
| 2026-05-06 14:33 | 51.33769 | -9.87902 | 34013 ft | 432 kts | 285° |
| 2026-05-06 14:34 | 51.35195 | -9.97236 | 34011 ft | 431 kts | 285° |
| 2026-05-06 14:34 | 51.36604 | -10.06512 | 34011 ft | 432 kts | 285° |
| 2026-05-06 14:35 | 51.38010 | -10.15826 | 34018 ft | 433 kts | 285° |
| 2026-05-06 14:35 | 51.39408 | -10.25139 | 34015 ft | 434 kts | 285° |
| 2026-05-06 14:36 | 51.40812 | -10.34542 | 34020 ft | 434 kts | 285° |
| 2026-05-06 14:36 | 51.42202 | -10.43913 | 34028 ft | 435 kts | 286° |
| 2026-05-06 14:37 | 51.43583 | -10.53277 | 34026 ft | 436 kts | 286° |
| 2026-05-06 14:37 | 51.44967 | -10.62721 | 34030 ft | 436 kts | 286° |
| 2026-05-06 14:38 | 51.46344 | -10.72170 | 34034 ft | 438 kts | 285° |
| 2026-05-06 14:38 | 51.47716 | -10.81646 | 34035 ft | 439 kts | 285° |
| 2026-05-06 14:39 | 51.49082 | -10.91139 | 34035 ft | 439 kts | 285° |
| 2026-05-06 14:39 | 51.50440 | -11.00633 | 34034 ft | 439 kts | 285° |
| 2026-05-06 14:40 | 51.51799 | -11.10203 | 34032 ft | 441 kts | 285° |
| 2026-05-06 14:40 | 51.53149 | -11.19759 | 34034 ft | 441 kts | 285° |
| 2026-05-06 14:41 | 51.54491 | -11.29323 | 34037 ft | 441 kts | 285° |
| 2026-05-06 14:41 | 51.55827 | -11.38906 | 34034 ft | 442 kts | 286° |
| 2026-05-06 14:42 | 51.57161 | -11.48536 | 34038 ft | 443 kts | 286° |
| 2026-05-06 14:42 | 51.58485 | -11.58159 | 34038 ft | 443 kts | 286° |
| 2026-05-06 14:43 | 51.59806 | -11.67818 | 34031 ft | 444 kts | 285° |
| 2026-05-06 14:43 | 51.61111 | -11.77428 | 34037 ft | 444 kts | 285° |
| 2026-05-06 14:44 | 51.62419 | -11.87123 | 34035 ft | 445 kts | 285° |
| 2026-05-06 14:45 | 51.64362 | -12.01640 | 34039 ft | 446 kts | 285° |
| 2026-05-06 14:45 | 51.65657 | -12.11405 | 34041 ft | 445 kts | 285° |
| 2026-05-06 14:46 | 51.66933 | -12.21087 | 34040 ft | 446 kts | 285° |
| 2026-05-06 14:46 | 51.68210 | -12.30841 | 34038 ft | 447 kts | 285° |
| 2026-05-06 14:47 | 51.69476 | -12.40586 | 34036 ft | 446 kts | 285° |
| 2026-05-06 14:47 | 51.70731 | -12.50303 | 34035 ft | 446 kts | 285° |
| 2026-05-06 14:48 | 51.71988 | -12.60107 | 34037 ft | 446 kts | 285° |
| 2026-05-06 14:48 | 51.73229 | -12.69866 | 34037 ft | 446 kts | 285° |
| 2026-05-06 14:49 | 51.74464 | -12.79631 | 34038 ft | 447 kts | 285° |
| 2026-05-06 14:49 | 51.75687 | -12.89376 | 34038 ft | 446 kts | 285° |
| 2026-05-06 14:50 | 51.76904 | -12.99143 | 34029 ft | 446 kts | 285° |
| 2026-05-06 14:50 | 51.78119 | -13.08971 | 34038 ft | 447 kts | 285° |
| 2026-05-06 14:51 | 51.79319 | -13.18747 | 34030 ft | 446 kts | 285° |
| 2026-05-06 14:51 | 51.80516 | -13.28566 | 34031 ft | 446 kts | 285° |
| 2026-05-06 14:52 | 51.81702 | -13.38364 | 34034 ft | 446 kts | 285° |
| 2026-05-06 14:52 | 51.82873 | -13.48114 | 34029 ft | 445 kts | 285° |
| 2026-05-06 14:53 | 51.84038 | -13.57890 | 34034 ft | 446 kts | 285° |
| 2026-05-06 14:53 | 51.85199 | -13.67700 | 34027 ft | 446 kts | 284° |
| 2026-05-06 14:54 | 51.86356 | -13.77546 | 34033 ft | 446 kts | 284° |
| 2026-05-06 14:54 | 51.87500 | -13.87371 | 34034 ft | 446 kts | 284° |
| 2026-05-06 14:55 | 51.88634 | -13.97169 | 34032 ft | 445 kts | 284° |
| 2026-05-06 14:55 | 51.89757 | -14.06957 | 34033 ft | 446 kts | 284° |
| 2026-05-06 14:56 | 51.90881 | -14.16830 | 34032 ft | 445 kts | 284° |
| 2026-05-06 14:56 | 51.91988 | -14.26621 | 34033 ft | 445 kts | 284° |
| 2026-05-06 14:57 | 51.93087 | -14.36429 | 34032 ft | 444 kts | 284° |
| 2026-05-06 14:57 | 51.94177 | -14.46231 | 34028 ft | 444 kts | 284° |
| 2026-05-06 14:58 | 51.95250 | -14.55956 | 34028 ft | 442 kts | 284° |
| 2026-05-06 14:58 | 51.96319 | -14.65726 | 34034 ft | 443 kts | 283° |
| 2026-05-06 14:59 | 51.97387 | -14.75556 | 34032 ft | 443 kts | 283° |
| 2026-05-06 14:59 | 51.98441 | -14.85350 | 34028 ft | 442 kts | 283° |
| 2026-05-06 15:00 | 51.99484 | -14.95106 | 34034 ft | 442 kts | 283° |
| 2026-05-06 15:00 | 52.00603 | -15.04855 | 34029 ft | 440 kts | 284° |
| 2026-05-06 15:01 | 52.01781 | -15.14580 | 34031 ft | 440 kts | 285° |
| 2026-05-06 15:01 | 52.02949 | -15.24271 | 34026 ft | 439 kts | 285° |
| 2026-05-06 15:02 | 52.04104 | -15.33914 | 34029 ft | 439 kts | 284° |
| 2026-05-06 15:02 | 52.05259 | -15.43634 | 34028 ft | 439 kts | 284° |
| 2026-05-06 15:03 | 52.06398 | -15.53286 | 34031 ft | 438 kts | 284° |
| 2026-05-06 15:03 | 52.07531 | -15.62959 | 34032 ft | 439 kts | 284° |
| 2026-05-06 15:04 | 52.08665 | -15.72708 | 34030 ft | 438 kts | 284° |
| 2026-05-06 15:04 | 52.09778 | -15.82353 | 34028 ft | 438 kts | 284° |
| 2026-05-06 15:05 | 52.10887 | -15.92038 | 34033 ft | 437 kts | 283° |
| 2026-05-06 15:05 | 52.11991 | -16.01759 | 34034 ft | 437 kts | 283° |
| 2026-05-06 15:06 | 52.13082 | -16.11427 | 34025 ft | 436 kts | 283° |
| 2026-05-06 15:06 | 52.14162 | -16.21083 | 34035 ft | 436 kts | 283° |
| 2026-05-06 15:07 | 52.15235 | -16.30749 | 34029 ft | 436 kts | 283° |
| 2026-05-06 15:07 | 52.16295 | -16.40365 | 34031 ft | 436 kts | 283° |
| 2026-05-06 15:08 | 52.17350 | -16.50033 | 34034 ft | 435 kts | 283° |
| 2026-05-06 15:08 | 52.18401 | -16.59712 | 34037 ft | 435 kts | 283° |
| 2026-05-06 15:09 | 52.19439 | -16.69376 | 34040 ft | 435 kts | 282° |
| 2026-05-06 15:09 | 52.20469 | -16.79029 | 34034 ft | 435 kts | 282° |
| 2026-05-06 15:10 | 52.21495 | -16.88720 | 34029 ft | 434 kts | 282° |
| 2026-05-06 15:10 | 52.22509 | -16.98391 | 34028 ft | 434 kts | 282° |
| 2026-05-06 15:11 | 52.23513 | -17.08036 | 34035 ft | 434 kts | 282° |
| 2026-05-06 15:11 | 52.24513 | -17.17723 | 34031 ft | 434 kts | 282° |
| 2026-05-06 15:12 | 52.25501 | -17.27373 | 34036 ft | 434 kts | 282° |
| 2026-05-06 15:12 | 52.26483 | -17.37055 | 34029 ft | 434 kts | 282° |
| 2026-05-06 15:13 | 52.27459 | -17.46750 | 34033 ft | 434 kts | 282° |
| 2026-05-06 15:13 | 52.28422 | -17.56404 | 34032 ft | 434 kts | 282° |
| 2026-05-06 15:14 | 52.29379 | -17.66078 | 34030 ft | 433 kts | 281° |
| 2026-05-06 15:14 | 52.30327 | -17.75739 | 34032 ft | 434 kts | 281° |
| 2026-05-06 15:15 | 52.31269 | -17.85441 | 34031 ft | 433 kts | 281° |
| 2026-05-06 15:15 | 52.32201 | -17.95109 | 34032 ft | 434 kts | 281° |
| 2026-05-06 15:16 | 52.33129 | -18.04837 | 34028 ft | 433 kts | 281° |
| 2026-05-06 15:16 | 52.34045 | -18.14507 | 34026 ft | 433 kts | 281° |
| 2026-05-06 15:17 | 52.34952 | -18.24190 | 34027 ft | 432 kts | 280° |
| 2026-05-06 15:17 | 52.35853 | -18.33886 | 34028 ft | 432 kts | 280° |
| 2026-05-06 15:18 | 52.36740 | -18.43524 | 34026 ft | 432 kts | 280° |
| 2026-05-06 15:18 | 52.37622 | -18.53199 | 34028 ft | 432 kts | 280° |
| 2026-05-06 15:19 | 52.38499 | -18.62896 | 34027 ft | 431 kts | 280° |
| 2026-05-06 15:19 | 52.39362 | -18.72547 | 34027 ft | 432 kts | 279° |
| 2026-05-06 15:20 | 52.40221 | -18.82237 | 34027 ft | 431 kts | 279° |
| 2026-05-06 15:20 | 52.41074 | -18.91953 | 34026 ft | 432 kts | 279° |
| 2026-05-06 15:21 | 52.41916 | -19.01633 | 34027 ft | 432 kts | 279° |
| 2026-05-06 15:21 | 52.42749 | -19.11310 | 34026 ft | 431 kts | 278° |
| 2026-05-06 15:22 | 52.43573 | -19.20980 | 34023 ft | 430 kts | 278° |
| 2026-05-06 15:22 | 52.44387 | -19.30629 | 34024 ft | 431 kts | 278° |
| 2026-05-06 15:23 | 52.45196 | -19.40307 | 34025 ft | 430 kts | 278° |
| 2026-05-06 15:23 | 52.45999 | -19.50011 | 34016 ft | 430 kts | 278° |
| 2026-05-06 15:24 | 52.46794 | -19.59726 | 34307 ft | 431 kts | 278° |
| 2026-05-06 15:24 | 52.47185 | -19.64543 | 34452 ft | 431 kts | 278° |
| 2026-05-06 15:24 | 52.47578 | -19.69415 | 34639 ft | 431 kts | 277° |
| 2026-05-06 15:24 | 52.47968 | -19.74255 | 34813 ft | 430 kts | 277° |
| 2026-05-06 15:25 | 52.48354 | -19.79093 | 34938 ft | 431 kts | 277° |
| 2026-05-06 15:25 | 52.48738 | -19.83916 | 35068 ft | 431 kts | 277° |
| 2026-05-06 15:25 | 52.49124 | -19.88794 | 35244 ft | 430 kts | 277° |
| 2026-05-06 15:25 | 52.49505 | -19.93643 | 35359 ft | 430 kts | 277° |
| 2026-05-06 15:26 | 52.49878 | -19.98448 | 35483 ft | 430 kts | 276° |
| 2026-05-06 15:26 | 52.50124 | -20.03329 | 35595 ft | 430 kts | 274° |
| 2026-05-06 15:26 | 52.50330 | -20.08173 | 35706 ft | 430 kts | 274° |
| 2026-05-06 15:26 | 52.50540 | -20.13088 | 35835 ft | 429 kts | 274° |
| 2026-05-06 15:27 | 52.50740 | -20.17922 | 35949 ft | 429 kts | 274° |
| 2026-05-06 15:27 | 52.51134 | -20.27630 | 36016 ft | 428 kts | 274° |
| 2026-05-06 15:28 | 52.51520 | -20.37354 | 36024 ft | 427 kts | 274° |
| 2026-05-06 15:28 | 52.51894 | -20.47033 | 36021 ft | 427 kts | 273° |
| 2026-05-06 15:29 | 52.52259 | -20.56686 | 36027 ft | 427 kts | 273° |